SDM6472 UNOO-ULLI
Flight info
| Callsign | SDM6472 |
|---|---|
| Flight time | N/A |
| Altitude | 34000 |
| Route | BUNET6D BUNET B236 LUKAS A305 TINRI N987 GIKES P982 ANDAT M60 APSAS L259 PRIBI P979 BEPOL BEPOL1B |
| Aircraft | B738/M-SDE2E3FGHIRWXY/LB1 |
Departure
| Time | 2026-05-08 14:12 |
|---|---|
| Airport | Omsk Central Airport (UNOO) |
Arrival
| Time | N/A |
|---|---|
| Airport | Pulkovo Airport (ULLI) |
| Time | Latitude | Longitude | Altitude | Speed | Heading |
|---|---|---|---|---|---|
| 2026-05-08 13:46 | 54.96361 | 73.32036 | 306 ft | 0 kts | 136° |
| 2026-05-08 14:09 | 54.96348 | 73.32056 | 306 ft | 6 kts | 138° |
| 2026-05-08 14:09 | 54.96328 | 73.32155 | 307 ft | 12 kts | 60° |
| 2026-05-08 14:09 | 54.96396 | 73.32234 | 306 ft | 14 kts | 9° |
| 2026-05-08 14:10 | 54.96479 | 73.32348 | 305 ft | 20 kts | 77° |
| 2026-05-08 14:10 | 54.96513 | 73.32616 | 304 ft | 26 kts | 76° |
| 2026-05-08 14:10 | 54.96551 | 73.32900 | 303 ft | 21 kts | 80° |
| 2026-05-08 14:10 | 54.96627 | 73.33047 | 305 ft | 18 kts | 356° |
| 2026-05-08 14:11 | 54.96751 | 73.32997 | 302 ft | 21 kts | 346° |
| 2026-05-08 14:11 | 54.96908 | 73.32931 | 301 ft | 25 kts | 347° |
| 2026-05-08 14:11 | 54.96955 | 73.32826 | 301 ft | 13 kts | 257° |
| 2026-05-08 14:11 | 54.96913 | 73.32517 | 305 ft | 51 kts | 257° |
| 2026-05-08 14:12 | 54.96772 | 73.31492 | 306 ft | 121 kts | 253° |
| 2026-05-08 14:12 | 54.96535 | 73.29727 | 331 ft | 176 kts | 257° |
| 2026-05-08 14:12 | 54.96259 | 73.27484 | 753 ft | 202 kts | 257° |
| 2026-05-08 14:12 | 54.95958 | 73.24956 | 1162 ft | 223 kts | 255° |
| 2026-05-08 14:13 | 54.95610 | 73.22251 | 1723 ft | 234 kts | 255° |
| 2026-05-08 14:13 | 54.95216 | 73.19443 | 2341 ft | 244 kts | 254° |
| 2026-05-08 14:13 | 54.94786 | 73.16462 | 2737 ft | 262 kts | 255° |
| 2026-05-08 14:13 | 54.94349 | 73.13341 | 3457 ft | 267 kts | 256° |
| 2026-05-08 14:14 | 54.93914 | 73.10188 | 4285 ft | 269 kts | 256° |
| 2026-05-08 14:14 | 54.93480 | 73.07006 | 5071 ft | 271 kts | 256° |
| 2026-05-08 14:14 | 54.93154 | 73.03755 | 5822 ft | 275 kts | 271° |
| 2026-05-08 14:14 | 54.93663 | 73.00553 | 6545 ft | 280 kts | 301° |
| 2026-05-08 14:15 | 54.94949 | 72.98016 | 7301 ft | 282 kts | 320° |
| 2026-05-08 14:15 | 54.96495 | 72.95880 | 8023 ft | 286 kts | 322° |
| 2026-05-08 14:15 | 54.98089 | 72.93768 | 8713 ft | 290 kts | 322° |
| 2026-05-08 14:15 | 54.99700 | 72.91636 | 9416 ft | 292 kts | 322° |
| 2026-05-08 14:16 | 55.01322 | 72.89472 | 10122 ft | 295 kts | 322° |
| 2026-05-08 14:16 | 55.02985 | 72.87232 | 10419 ft | 314 kts | 321° |
| 2026-05-08 14:16 | 55.04770 | 72.84812 | 10601 ft | 335 kts | 321° |
| 2026-05-08 14:16 | 55.06634 | 72.82272 | 10868 ft | 350 kts | 321° |
| 2026-05-08 14:17 | 55.08573 | 72.79622 | 11426 ft | 357 kts | 321° |
| 2026-05-08 14:17 | 55.10525 | 72.76950 | 12131 ft | 358 kts | 321° |
| 2026-05-08 14:17 | 55.12485 | 72.74263 | 12820 ft | 359 kts | 321° |
| 2026-05-08 14:17 | 55.14460 | 72.71550 | 13471 ft | 362 kts | 321° |
| 2026-05-08 14:18 | 55.16311 | 72.68559 | 14083 ft | 364 kts | 306° |
| 2026-05-08 14:18 | 55.17623 | 72.64783 | 14742 ft | 364 kts | 298° |
| 2026-05-08 14:18 | 55.18839 | 72.60896 | 15363 ft | 366 kts | 297° |
| 2026-05-08 14:18 | 55.20058 | 72.56960 | 15944 ft | 369 kts | 297° |
| 2026-05-08 14:19 | 55.21286 | 72.53003 | 16532 ft | 371 kts | 297° |
| 2026-05-08 14:19 | 55.22528 | 72.49015 | 17125 ft | 373 kts | 297° |
| 2026-05-08 14:19 | 55.23780 | 72.45015 | 17688 ft | 375 kts | 298° |
| 2026-05-08 14:19 | 55.25041 | 72.41000 | 18236 ft | 378 kts | 298° |
| 2026-05-08 14:20 | 55.26313 | 72.36953 | 18770 ft | 380 kts | 298° |
| 2026-05-08 14:20 | 55.27594 | 72.32874 | 19255 ft | 384 kts | 297° |
| 2026-05-08 14:20 | 55.28887 | 72.28755 | 19736 ft | 386 kts | 297° |
| 2026-05-08 14:20 | 55.30170 | 72.24661 | 20198 ft | 390 kts | 297° |
| 2026-05-08 14:21 | 55.31495 | 72.20426 | 20681 ft | 392 kts | 297° |
| 2026-05-08 14:21 | 55.32809 | 72.16222 | 21137 ft | 394 kts | 297° |
| 2026-05-08 14:21 | 55.34133 | 72.11978 | 21554 ft | 398 kts | 297° |
| 2026-05-08 14:21 | 55.35464 | 72.07702 | 21980 ft | 401 kts | 297° |
| 2026-05-08 14:22 | 55.36809 | 72.03376 | 22415 ft | 403 kts | 297° |
| 2026-05-08 14:22 | 55.38154 | 71.99041 | 22827 ft | 405 kts | 297° |
| 2026-05-08 14:22 | 55.39504 | 71.94680 | 23200 ft | 409 kts | 297° |
| 2026-05-08 14:22 | 55.40866 | 71.90268 | 23526 ft | 413 kts | 296° |
| 2026-05-08 14:23 | 55.42243 | 71.85804 | 23925 ft | 414 kts | 296° |
| 2026-05-08 14:23 | 55.43621 | 71.81331 | 24308 ft | 416 kts | 296° |
| 2026-05-08 14:23 | 55.45004 | 71.76831 | 24714 ft | 417 kts | 296° |
| 2026-05-08 14:23 | 55.46384 | 71.72336 | 25131 ft | 418 kts | 296° |
| 2026-05-08 14:24 | 55.47768 | 71.67817 | 25509 ft | 419 kts | 296° |
| 2026-05-08 14:24 | 55.49152 | 71.63287 | 25877 ft | 420 kts | 296° |
| 2026-05-08 14:24 | 55.50535 | 71.58751 | 26241 ft | 421 kts | 296° |
| 2026-05-08 14:24 | 55.51921 | 71.54196 | 26615 ft | 421 kts | 296° |
| 2026-05-08 14:25 | 55.53311 | 71.49622 | 26949 ft | 422 kts | 296° |
| 2026-05-08 14:25 | 55.54700 | 71.45042 | 27283 ft | 423 kts | 296° |
| 2026-05-08 14:25 | 55.56087 | 71.40455 | 27592 ft | 425 kts | 295° |
| 2026-05-08 14:25 | 55.57482 | 71.35836 | 27921 ft | 425 kts | 295° |
| 2026-05-08 14:26 | 55.58876 | 71.31220 | 28227 ft | 426 kts | 295° |
| 2026-05-08 14:26 | 55.60268 | 71.26595 | 28516 ft | 426 kts | 295° |
| 2026-05-08 14:26 | 55.61666 | 71.21936 | 28754 ft | 429 kts | 295° |
| 2026-05-08 14:26 | 55.63057 | 71.17272 | 29005 ft | 430 kts | 295° |
| 2026-05-08 14:27 | 55.64450 | 71.12587 | 29276 ft | 430 kts | 295° |
| 2026-05-08 14:27 | 55.65842 | 71.07896 | 29584 ft | 430 kts | 295° |
| 2026-05-08 14:27 | 55.67230 | 71.03209 | 29968 ft | 428 kts | 295° |
| 2026-05-08 14:27 | 55.68608 | 70.98547 | 30330 ft | 426 kts | 294° |
| 2026-05-08 14:28 | 55.69980 | 70.93896 | 30636 ft | 425 kts | 294° |
| 2026-05-08 14:28 | 55.71349 | 70.89243 | 30886 ft | 426 kts | 294° |
| 2026-05-08 14:28 | 55.72717 | 70.84587 | 31171 ft | 425 kts | 294° |
| 2026-05-08 14:28 | 55.74082 | 70.79933 | 31430 ft | 425 kts | 294° |
| 2026-05-08 14:29 | 55.75444 | 70.75277 | 31662 ft | 425 kts | 294° |
| 2026-05-08 14:29 | 55.76807 | 70.70612 | 31934 ft | 425 kts | 294° |
| 2026-05-08 14:29 | 55.78162 | 70.65966 | 32193 ft | 424 kts | 294° |
| 2026-05-08 14:29 | 55.79516 | 70.61313 | 32445 ft | 424 kts | 294° |
| 2026-05-08 14:30 | 55.80868 | 70.56656 | 32664 ft | 424 kts | 294° |
| 2026-05-08 14:30 | 55.82221 | 70.51988 | 32875 ft | 424 kts | 293° |
| 2026-05-08 14:30 | 55.83115 | 70.48898 | 33020 ft | 424 kts | 293° |
| 2026-05-08 14:30 | 55.84913 | 70.42671 | 33342 ft | 423 kts | 293° |
| 2026-05-08 14:31 | 55.85804 | 70.39579 | 33485 ft | 423 kts | 293° |
| 2026-05-08 14:31 | 55.87161 | 70.34865 | 33692 ft | 423 kts | 293° |
| 2026-05-08 14:31 | 55.88482 | 70.30264 | 33902 ft | 422 kts | 293° |
| 2026-05-08 14:32 | 55.92525 | 70.16121 | 33888 ft | 426 kts | 293° |
| 2026-05-08 14:32 | 55.95194 | 70.06751 | 33893 ft | 420 kts | 292° |
| 2026-05-08 14:33 | 55.97825 | 69.97459 | 33898 ft | 419 kts | 292° |
| 2026-05-08 14:33 | 56.00442 | 69.88183 | 33903 ft | 418 kts | 292° |
| 2026-05-08 14:34 | 56.03036 | 69.78955 | 33903 ft | 417 kts | 292° |
| 2026-05-08 14:34 | 56.05635 | 69.69675 | 33901 ft | 417 kts | 292° |
| 2026-05-08 14:35 | 56.08237 | 69.60357 | 33899 ft | 419 kts | 293° |
| 2026-05-08 14:35 | 56.11196 | 69.51311 | 33903 ft | 422 kts | 297° |
| 2026-05-08 14:36 | 56.14258 | 69.42312 | 33895 ft | 422 kts | 295° |
| 2026-05-08 14:36 | 56.16939 | 69.32972 | 33899 ft | 421 kts | 292° |
| 2026-05-08 14:37 | 56.19487 | 69.23517 | 33897 ft | 421 kts | 292° |
| 2026-05-08 14:37 | 56.22053 | 69.14015 | 33897 ft | 422 kts | 292° |
| 2026-05-08 14:38 | 56.24629 | 69.04536 | 33900 ft | 422 kts | 292° |
| 2026-05-08 14:38 | 56.27212 | 68.95038 | 33898 ft | 423 kts | 292° |
| 2026-05-08 14:39 | 56.29773 | 68.85586 | 33894 ft | 423 kts | 292° |
| 2026-05-08 14:39 | 56.32346 | 68.76048 | 33902 ft | 423 kts | 292° |
| 2026-05-08 14:40 | 56.34907 | 68.66517 | 33897 ft | 423 kts | 292° |
| 2026-05-08 14:40 | 56.37465 | 68.56958 | 33894 ft | 423 kts | 292° |
| 2026-05-08 14:41 | 56.40013 | 68.47385 | 33900 ft | 423 kts | 292° |
| 2026-05-08 14:41 | 56.42559 | 68.37787 | 33897 ft | 424 kts | 292° |
| 2026-05-08 14:42 | 56.44907 | 68.28899 | 33897 ft | 425 kts | 292° |
| 2026-05-08 14:42 | 56.47457 | 68.19206 | 33956 ft | 429 kts | 291° |
| 2026-05-08 14:43 | 56.48734 | 68.14331 | 34163 ft | 428 kts | 291° |
| 2026-05-08 14:43 | 56.50003 | 68.09484 | 34419 ft | 426 kts | 291° |
| 2026-05-08 14:43 | 56.51270 | 68.04636 | 34676 ft | 424 kts | 291° |
| 2026-05-08 14:43 | 56.52527 | 67.99814 | 34884 ft | 423 kts | 291° |
| 2026-05-08 14:44 | 56.53781 | 67.94990 | 35049 ft | 424 kts | 291° |
| 2026-05-08 14:44 | 56.55033 | 67.90163 | 35155 ft | 425 kts | 291° |
| 2026-05-08 14:44 | 56.56296 | 67.85282 | 35316 ft | 425 kts | 291° |
| 2026-05-08 14:44 | 56.57547 | 67.80438 | 35553 ft | 424 kts | 291° |
| 2026-05-08 14:45 | 56.58795 | 67.75597 | 35771 ft | 422 kts | 291° |
| 2026-05-08 14:45 | 56.60036 | 67.70771 | 35890 ft | 423 kts | 291° |
| 2026-05-08 14:45 | 56.62530 | 67.61038 | 35905 ft | 424 kts | 291° |
| 2026-05-08 14:46 | 56.65020 | 67.51284 | 35902 ft | 421 kts | 291° |
| 2026-05-08 14:46 | 56.67470 | 67.41646 | 35905 ft | 419 kts | 291° |
| 2026-05-08 14:47 | 56.69896 | 67.32058 | 35907 ft | 417 kts | 291° |
| 2026-05-08 14:47 | 56.72311 | 67.22467 | 35905 ft | 415 kts | 291° |
| 2026-05-08 14:48 | 56.74704 | 67.12925 | 35911 ft | 415 kts | 291° |
| 2026-05-08 14:48 | 56.77097 | 67.03343 | 35909 ft | 415 kts | 291° |
| 2026-05-08 14:49 | 56.79474 | 66.93784 | 35911 ft | 416 kts | 291° |
| 2026-05-08 14:49 | 56.81891 | 66.84023 | 35909 ft | 418 kts | 291° |
| 2026-05-08 14:50 | 56.84282 | 66.74310 | 35913 ft | 420 kts | 290° |
| 2026-05-08 14:50 | 56.86605 | 66.64468 | 35910 ft | 422 kts | 290° |
| 2026-05-08 14:51 | 56.88903 | 66.54581 | 35908 ft | 423 kts | 290° |
| 2026-05-08 14:51 | 56.91177 | 66.44789 | 35909 ft | 424 kts | 290° |
| 2026-05-08 14:52 | 56.94670 | 66.29712 | 35907 ft | 425 kts | 290° |
| 2026-05-08 14:53 | 56.96979 | 66.19691 | 35905 ft | 424 kts | 290° |
| 2026-05-08 14:53 | 56.99266 | 66.09718 | 35908 ft | 423 kts | 290° |
| 2026-05-08 14:54 | 57.01538 | 65.99774 | 35914 ft | 421 kts | 290° |
| 2026-05-08 14:54 | 57.03794 | 65.89864 | 35912 ft | 420 kts | 290° |
| 2026-05-08 14:55 | 57.06037 | 65.79968 | 35916 ft | 419 kts | 290° |
| 2026-05-08 14:55 | 57.08265 | 65.70092 | 35919 ft | 418 kts | 290° |
| 2026-05-08 14:56 | 57.10479 | 65.60227 | 35917 ft | 417 kts | 289° |
| 2026-05-08 14:56 | 57.12683 | 65.50363 | 35915 ft | 416 kts | 289° |
| 2026-05-08 14:57 | 57.14879 | 65.40490 | 35918 ft | 416 kts | 289° |
| 2026-05-08 14:57 | 57.17563 | 65.31044 | 35923 ft | 420 kts | 302° |
| 2026-05-08 14:58 | 57.21561 | 65.23088 | 35929 ft | 425 kts | 313° |
| 2026-05-08 14:58 | 57.25916 | 65.15647 | 35924 ft | 426 kts | 313° |
| 2026-05-08 14:59 | 57.30281 | 65.08118 | 35917 ft | 426 kts | 313° |
| 2026-05-08 14:59 | 57.36760 | 64.96767 | 35904 ft | 428 kts | 313° |
| 2026-05-08 15:00 | 57.40341 | 64.90446 | 35909 ft | 428 kts | 313° |
| 2026-05-08 15:00 | 57.44653 | 64.82814 | 35909 ft | 428 kts | 312° |
| 2026-05-08 15:01 | 57.48969 | 64.75158 | 35905 ft | 428 kts | 312° |
| 2026-05-08 15:01 | 57.53269 | 64.67486 | 35908 ft | 428 kts | 312° |
| 2026-05-08 15:02 | 57.57544 | 64.59817 | 35908 ft | 426 kts | 312° |
| 2026-05-08 15:02 | 57.61816 | 64.52127 | 35907 ft | 426 kts | 312° |
| 2026-05-08 15:03 | 57.66058 | 64.44468 | 35905 ft | 425 kts | 312° |
| 2026-05-08 15:03 | 57.70296 | 64.36789 | 35907 ft | 423 kts | 312° |
| 2026-05-08 15:04 | 57.74518 | 64.29113 | 35895 ft | 422 kts | 311° |
| 2026-05-08 15:04 | 57.78723 | 64.21441 | 35911 ft | 421 kts | 311° |
| 2026-05-08 15:05 | 57.82891 | 64.13813 | 35910 ft | 421 kts | 311° |
| 2026-05-08 15:05 | 57.87009 | 64.06005 | 35911 ft | 421 kts | 310° |
| 2026-05-08 15:06 | 57.91103 | 63.98078 | 35902 ft | 422 kts | 310° |
| 2026-05-08 15:06 | 57.95214 | 63.90116 | 35897 ft | 423 kts | 310° |
| 2026-05-08 15:07 | 57.99325 | 63.82152 | 35900 ft | 423 kts | 310° |
| 2026-05-08 15:07 | 58.03435 | 63.74168 | 35899 ft | 424 kts | 310° |
| 2026-05-08 15:08 | 58.06872 | 63.67468 | 35896 ft | 424 kts | 310° |
| 2026-05-08 15:08 | 58.11628 | 63.58142 | 35898 ft | 424 kts | 309° |
| 2026-05-08 15:09 | 58.15693 | 63.49936 | 35900 ft | 424 kts | 309° |
| 2026-05-08 15:09 | 58.19684 | 63.41809 | 35898 ft | 424 kts | 309° |
| 2026-05-08 15:10 | 58.23695 | 63.33635 | 35894 ft | 423 kts | 308° |
| 2026-05-08 15:10 | 58.27700 | 63.25456 | 35907 ft | 422 kts | 308° |
| 2026-05-08 15:11 | 58.31691 | 63.17282 | 35904 ft | 421 kts | 308° |
| 2026-05-08 15:11 | 58.35670 | 63.09102 | 35911 ft | 419 kts | 308° |
| 2026-05-08 15:12 | 58.39621 | 63.00948 | 35907 ft | 418 kts | 308° |
| 2026-05-08 15:12 | 58.43563 | 62.92785 | 35905 ft | 418 kts | 308° |
| 2026-05-08 15:13 | 58.47489 | 62.84625 | 35908 ft | 417 kts | 308° |
| 2026-05-08 15:13 | 58.51412 | 62.76446 | 35898 ft | 416 kts | 308° |
| 2026-05-08 15:14 | 58.55265 | 62.68175 | 35900 ft | 415 kts | 305° |
| 2026-05-08 15:14 | 58.58887 | 62.59595 | 35898 ft | 414 kts | 304° |
| 2026-05-08 15:15 | 58.62477 | 62.50950 | 35898 ft | 414 kts | 304° |
| 2026-05-08 15:15 | 58.66069 | 62.42341 | 35898 ft | 414 kts | 304° |
| 2026-05-08 15:16 | 58.69676 | 62.33709 | 35899 ft | 415 kts | 304° |
| 2026-05-08 15:16 | 58.73325 | 62.24955 | 35899 ft | 415 kts | 304° |
| 2026-05-08 15:17 | 58.76938 | 62.16259 | 35900 ft | 415 kts | 304° |
| 2026-05-08 15:17 | 58.80566 | 62.07494 | 35903 ft | 416 kts | 304° |
| 2026-05-08 15:18 | 58.84147 | 61.98805 | 35897 ft | 416 kts | 304° |
| 2026-05-08 15:18 | 58.87743 | 61.90050 | 35897 ft | 416 kts | 303° |
| 2026-05-08 15:19 | 58.91358 | 61.81216 | 35899 ft | 416 kts | 303° |
| 2026-05-08 15:19 | 58.94927 | 61.72464 | 35897 ft | 415 kts | 303° |
| 2026-05-08 15:20 | 58.98218 | 61.63328 | 35898 ft | 408 kts | 292° |
| 2026-05-08 15:20 | 59.00125 | 61.53139 | 35897 ft | 400 kts | 278° |
| 2026-05-08 15:21 | 59.01144 | 61.42558 | 35909 ft | 399 kts | 278° |
| 2026-05-08 15:21 | 59.02136 | 61.31954 | 35897 ft | 398 kts | 278° |
| 2026-05-08 15:22 | 59.03132 | 61.21399 | 35896 ft | 398 kts | 278° |
| 2026-05-08 15:22 | 59.04130 | 61.10858 | 35897 ft | 397 kts | 278° |
| 2026-05-08 15:23 | 59.05125 | 61.00290 | 35898 ft | 397 kts | 278° |
| 2026-05-08 15:23 | 59.06112 | 60.89724 | 35898 ft | 397 kts | 278° |
| 2026-05-08 15:24 | 59.07087 | 60.79198 | 35900 ft | 397 kts | 278° |
| 2026-05-08 15:24 | 59.08062 | 60.68561 | 35867 ft | 398 kts | 278° |
| 2026-05-08 15:25 | 59.09028 | 60.57922 | 35856 ft | 399 kts | 278° |
| 2026-05-08 15:25 | 59.09982 | 60.47320 | 35849 ft | 399 kts | 277° |
| 2026-05-08 15:26 | 59.10772 | 60.38461 | 35853 ft | 399 kts | 277° |
| 2026-05-08 15:26 | 59.11711 | 60.27833 | 35848 ft | 398 kts | 277° |
| 2026-05-08 15:27 | 59.12791 | 60.15477 | 35849 ft | 398 kts | 277° |
| 2026-05-08 15:27 | 59.13554 | 60.06664 | 35847 ft | 397 kts | 277° |
| 2026-05-08 15:28 | 59.14466 | 59.96035 | 35839 ft | 397 kts | 277° |
| 2026-05-08 15:28 | 59.15365 | 59.85449 | 35838 ft | 396 kts | 277° |
| 2026-05-08 15:29 | 59.16256 | 59.74844 | 35844 ft | 395 kts | 277° |
| 2026-05-08 15:29 | 59.17137 | 59.64257 | 35835 ft | 395 kts | 277° |
| 2026-05-08 15:30 | 59.18007 | 59.53688 | 35829 ft | 395 kts | 277° |
| 2026-05-08 15:30 | 59.18865 | 59.43164 | 35832 ft | 394 kts | 277° |
| 2026-05-08 15:31 | 59.19718 | 59.32582 | 35834 ft | 394 kts | 277° |
| 2026-05-08 15:31 | 59.20564 | 59.21994 | 35833 ft | 394 kts | 276° |
| 2026-05-08 15:32 | 59.21398 | 59.11410 | 35822 ft | 395 kts | 276° |
| 2026-05-08 15:32 | 59.22221 | 59.00870 | 35826 ft | 395 kts | 276° |
| 2026-05-08 15:33 | 59.23042 | 58.90237 | 35826 ft | 396 kts | 276° |
| 2026-05-08 15:33 | 59.23860 | 58.79529 | 35822 ft | 397 kts | 276° |
| 2026-05-08 15:34 | 59.24668 | 58.68840 | 35829 ft | 398 kts | 276° |
| 2026-05-08 15:34 | 59.25463 | 58.58185 | 35814 ft | 399 kts | 276° |
| 2026-05-08 15:35 | 59.26261 | 58.47386 | 35816 ft | 400 kts | 276° |
| 2026-05-08 15:35 | 59.27049 | 58.36578 | 35811 ft | 400 kts | 275° |
| 2026-05-08 15:36 | 59.27824 | 58.25841 | 35810 ft | 400 kts | 275° |
| 2026-05-08 15:36 | 59.28592 | 58.15083 | 35810 ft | 399 kts | 275° |
| 2026-05-08 15:37 | 59.29350 | 58.04321 | 35815 ft | 398 kts | 275° |
| 2026-05-08 15:37 | 59.30100 | 57.93630 | 35805 ft | 397 kts | 275° |
| 2026-05-08 15:38 | 59.30848 | 57.82913 | 35803 ft | 396 kts | 275° |
| 2026-05-08 15:38 | 59.31586 | 57.72220 | 35807 ft | 395 kts | 275° |
| 2026-05-08 15:39 | 59.32313 | 57.61551 | 35804 ft | 395 kts | 275° |
| 2026-05-08 15:39 | 59.33028 | 57.50908 | 35797 ft | 395 kts | 275° |
| 2026-05-08 15:40 | 59.33738 | 57.40222 | 35799 ft | 394 kts | 274° |
| 2026-05-08 15:40 | 59.34435 | 57.29587 | 35794 ft | 394 kts | 274° |
| 2026-05-08 15:41 | 59.35124 | 57.18976 | 35798 ft | 394 kts | 274° |
| 2026-05-08 15:41 | 59.35799 | 57.08316 | 35799 ft | 394 kts | 274° |
| 2026-05-08 15:42 | 59.36369 | 56.97624 | 35798 ft | 394 kts | 273° |
| 2026-05-08 15:42 | 59.36903 | 56.86906 | 35799 ft | 395 kts | 272° |
| 2026-05-08 15:43 | 59.37436 | 56.76160 | 35797 ft | 396 kts | 272° |
| 2026-05-08 15:43 | 59.37968 | 56.65409 | 35797 ft | 396 kts | 272° |
| 2026-05-08 15:44 | 59.38494 | 56.54658 | 35797 ft | 396 kts | 272° |
| 2026-05-08 15:44 | 59.39014 | 56.43874 | 35796 ft | 397 kts | 272° |
| 2026-05-08 15:45 | 59.39523 | 56.33118 | 35794 ft | 396 kts | 272° |
| 2026-05-08 15:45 | 59.40022 | 56.22352 | 35798 ft | 396 kts | 272° |
| 2026-05-08 15:46 | 59.40509 | 56.11665 | 35799 ft | 395 kts | 271° |
| 2026-05-08 15:46 | 59.40989 | 56.00947 | 35794 ft | 394 kts | 271° |
| 2026-05-08 15:47 | 59.41460 | 55.90239 | 35799 ft | 393 kts | 271° |
| 2026-05-08 15:47 | 59.41923 | 55.79516 | 35794 ft | 392 kts | 271° |
| 2026-05-08 15:48 | 59.42593 | 55.63574 | 35796 ft | 391 kts | 271° |
| 2026-05-08 15:49 | 59.43032 | 55.52874 | 35797 ft | 391 kts | 271° |
| 2026-05-08 15:49 | 59.43459 | 55.42272 | 35802 ft | 391 kts | 271° |
| 2026-05-08 15:50 | 59.43881 | 55.31560 | 35802 ft | 391 kts | 271° |
| 2026-05-08 15:50 | 59.44288 | 55.20973 | 35808 ft | 392 kts | 271° |
| 2026-05-08 15:51 | 59.44692 | 55.10274 | 35805 ft | 392 kts | 271° |
| 2026-05-08 15:51 | 59.45088 | 54.99556 | 35811 ft | 393 kts | 271° |
| 2026-05-08 15:52 | 59.45475 | 54.88845 | 35818 ft | 394 kts | 271° |
| 2026-05-08 15:52 | 59.45855 | 54.78075 | 35817 ft | 395 kts | 271° |
| 2026-05-08 15:53 | 59.46226 | 54.67290 | 35816 ft | 396 kts | 271° |
| 2026-05-08 15:53 | 59.46591 | 54.56442 | 35822 ft | 397 kts | 271° |
| 2026-05-08 15:54 | 59.46945 | 54.45625 | 35825 ft | 397 kts | 271° |
| 2026-05-08 15:54 | 59.47293 | 54.34779 | 35822 ft | 397 kts | 270° |
| 2026-05-08 15:55 | 59.47631 | 54.23932 | 35829 ft | 396 kts | 270° |
| 2026-05-08 15:55 | 59.48120 | 54.07735 | 35833 ft | 395 kts | 270° |
| 2026-05-08 15:56 | 59.48433 | 53.96922 | 35832 ft | 394 kts | 270° |
| 2026-05-08 15:56 | 59.48735 | 53.86148 | 35840 ft | 394 kts | 270° |
| 2026-05-08 15:57 | 59.49027 | 53.75427 | 35842 ft | 393 kts | 270° |
| 2026-05-08 15:57 | 59.49313 | 53.64661 | 35844 ft | 392 kts | 270° |
| 2026-05-08 15:58 | 59.49589 | 53.53953 | 35845 ft | 392 kts | 270° |
| 2026-05-08 15:58 | 59.49855 | 53.43252 | 35849 ft | 392 kts | 270° |
| 2026-05-08 15:59 | 59.50114 | 53.32518 | 35858 ft | 392 kts | 270° |
| 2026-05-08 15:59 | 59.50346 | 53.22608 | 35864 ft | 393 kts | 270° |
| 2026-05-08 16:00 | 59.50715 | 53.11744 | 35867 ft | 394 kts | 272° |
| 2026-05-08 16:00 | 59.51287 | 53.01045 | 35869 ft | 395 kts | 273° |
| 2026-05-08 16:01 | 59.51774 | 52.91979 | 35880 ft | 396 kts | 272° |
| 2026-05-08 16:01 | 59.52415 | 52.79392 | 35870 ft | 397 kts | 272° |
| 2026-05-08 16:02 | 59.52946 | 52.68562 | 35882 ft | 397 kts | 272° |
| 2026-05-08 16:02 | 59.53466 | 52.57740 | 35879 ft | 397 kts | 272° |
| 2026-05-08 16:03 | 59.53894 | 52.48678 | 35883 ft | 397 kts | 272° |
| 2026-05-08 16:03 | 59.54394 | 52.37940 | 35888 ft | 395 kts | 272° |
| 2026-05-08 16:04 | 59.54887 | 52.27131 | 35885 ft | 395 kts | 272° |
| 2026-05-08 16:04 | 59.55480 | 52.16386 | 35906 ft | 392 kts | 271° |
| 2026-05-08 16:05 | 59.55863 | 52.05673 | 35896 ft | 391 kts | 271° |
| 2026-05-08 16:05 | 59.56294 | 51.94990 | 35942 ft | 390 kts | 271° |
| 2026-05-08 16:06 | 59.56752 | 51.84361 | 35943 ft | 389 kts | 272° |
| 2026-05-08 16:06 | 59.57204 | 51.73721 | 35943 ft | 389 kts | 271° |
| 2026-05-08 16:07 | 59.57644 | 51.63087 | 35943 ft | 389 kts | 271° |
| 2026-05-08 16:07 | 59.58075 | 51.52430 | 35947 ft | 390 kts | 271° |
| 2026-05-08 16:08 | 59.58499 | 51.41728 | 35946 ft | 391 kts | 271° |
| 2026-05-08 16:08 | 59.58917 | 51.30936 | 35943 ft | 392 kts | 271° |
| 2026-05-08 16:09 | 59.59321 | 51.20275 | 35943 ft | 393 kts | 271° |
| 2026-05-08 16:09 | 59.59721 | 51.09500 | 35947 ft | 394 kts | 271° |
| 2026-05-08 16:10 | 59.60114 | 50.98713 | 35945 ft | 394 kts | 271° |
| 2026-05-08 16:10 | 59.60496 | 50.87971 | 35948 ft | 395 kts | 271° |
| 2026-05-08 16:11 | 59.60639 | 50.77256 | 35948 ft | 394 kts | 268° |
| 2026-05-08 16:11 | 59.60595 | 50.66621 | 35961 ft | 394 kts | 267° |
| 2026-05-08 16:12 | 59.60558 | 50.55747 | 35962 ft | 394 kts | 267° |
| 2026-05-08 16:12 | 59.60533 | 50.45013 | 35966 ft | 393 kts | 267° |
| 2026-05-08 16:13 | 59.60500 | 50.34149 | 35960 ft | 393 kts | 267° |
| 2026-05-08 16:13 | 59.60488 | 50.23374 | 35962 ft | 392 kts | 268° |
| 2026-05-08 16:14 | 59.60483 | 50.12588 | 35965 ft | 392 kts | 267° |
| 2026-05-08 16:14 | 59.60469 | 50.01866 | 35962 ft | 391 kts | 267° |
| 2026-05-08 16:15 | 59.60443 | 49.91108 | 35962 ft | 390 kts | 267° |
| 2026-05-08 16:15 | 59.60408 | 49.80442 | 35959 ft | 390 kts | 267° |
| 2026-05-08 16:16 | 59.60364 | 49.69710 | 35965 ft | 389 kts | 267° |
| 2026-05-08 16:16 | 59.60312 | 49.59110 | 35963 ft | 389 kts | 267° |
| 2026-05-08 16:17 | 59.60262 | 49.50176 | 35960 ft | 389 kts | 267° |
| 2026-05-08 16:17 | 59.60181 | 49.37723 | 35958 ft | 389 kts | 267° |
| 2026-05-08 16:18 | 59.60103 | 49.27043 | 35969 ft | 389 kts | 267° |
| 2026-05-08 16:18 | 59.60016 | 49.16288 | 35964 ft | 390 kts | 267° |
| 2026-05-08 16:19 | 59.59922 | 49.05648 | 35976 ft | 390 kts | 267° |
| 2026-05-08 16:19 | 59.59817 | 48.94906 | 35968 ft | 391 kts | 267° |
| 2026-05-08 16:20 | 59.59686 | 48.84067 | 35974 ft | 392 kts | 266° |
| 2026-05-08 16:20 | 59.59547 | 48.73383 | 35975 ft | 393 kts | 266° |
| 2026-05-08 16:21 | 59.59398 | 48.62520 | 35972 ft | 393 kts | 266° |
| 2026-05-08 16:21 | 59.59244 | 48.51799 | 35971 ft | 394 kts | 266° |
| 2026-05-08 16:22 | 59.59082 | 48.40978 | 35971 ft | 394 kts | 266° |
| 2026-05-08 16:22 | 59.58908 | 48.30109 | 35978 ft | 393 kts | 266° |
| 2026-05-08 16:23 | 59.58734 | 48.19365 | 35970 ft | 394 kts | 266° |
| 2026-05-08 16:23 | 59.58554 | 48.08567 | 35970 ft | 394 kts | 266° |
| 2026-05-08 16:24 | 59.58364 | 47.97714 | 35973 ft | 393 kts | 266° |
| 2026-05-08 16:24 | 59.58166 | 47.86908 | 35970 ft | 394 kts | 266° |
| 2026-05-08 16:25 | 59.57959 | 47.76119 | 35974 ft | 394 kts | 266° |
| 2026-05-08 16:25 | 59.57743 | 47.65303 | 35973 ft | 394 kts | 266° |
| 2026-05-08 16:26 | 59.57520 | 47.54575 | 35972 ft | 393 kts | 266° |
| 2026-05-08 16:26 | 59.57285 | 47.43739 | 35968 ft | 393 kts | 266° |
| 2026-05-08 16:27 | 59.57047 | 47.33064 | 35974 ft | 392 kts | 266° |
| 2026-05-08 16:27 | 59.56798 | 47.22313 | 36004 ft | 391 kts | 266° |
| 2026-05-08 16:28 | 59.56542 | 47.11576 | 36015 ft | 390 kts | 265° |
| 2026-05-08 16:28 | 59.56280 | 47.00865 | 36021 ft | 390 kts | 265° |
| 2026-05-08 16:29 | 59.56012 | 46.90203 | 36016 ft | 389 kts | 265° |
| 2026-05-08 16:29 | 59.55735 | 46.79540 | 36023 ft | 389 kts | 265° |
| 2026-05-08 16:30 | 59.55449 | 46.68882 | 36017 ft | 389 kts | 265° |
| 2026-05-08 16:30 | 59.55155 | 46.58239 | 36015 ft | 389 kts | 265° |
| 2026-05-08 16:31 | 59.54851 | 46.47575 | 36020 ft | 389 kts | 265° |
| 2026-05-08 16:31 | 59.54540 | 46.36931 | 36016 ft | 389 kts | 265° |
| 2026-05-08 16:32 | 59.54220 | 46.26288 | 36019 ft | 389 kts | 265° |
| 2026-05-08 16:32 | 59.53891 | 46.15646 | 36020 ft | 389 kts | 265° |
| 2026-05-08 16:33 | 59.53555 | 46.05004 | 36019 ft | 389 kts | 265° |
| 2026-05-08 16:33 | 59.53208 | 45.94359 | 36017 ft | 389 kts | 265° |
| 2026-05-08 16:34 | 59.52854 | 45.83739 | 36019 ft | 389 kts | 265° |
| 2026-05-08 16:34 | 59.52491 | 45.73089 | 36019 ft | 389 kts | 265° |
| 2026-05-08 16:35 | 59.52122 | 45.62472 | 36018 ft | 389 kts | 265° |
| 2026-05-08 16:35 | 59.51756 | 45.51855 | 36018 ft | 389 kts | 266° |
| 2026-05-08 16:36 | 59.52163 | 45.41186 | 36023 ft | 391 kts | 275° |
| 2026-05-08 16:36 | 59.52752 | 45.32273 | 36021 ft | 391 kts | 275° |
| 2026-05-08 16:37 | 59.53430 | 45.21661 | 36017 ft | 390 kts | 274° |
| 2026-05-08 16:37 | 59.54084 | 45.11075 | 36026 ft | 390 kts | 274° |
| 2026-05-08 16:38 | 59.54727 | 45.00447 | 36030 ft | 389 kts | 274° |
| 2026-05-08 16:38 | 59.55360 | 44.89862 | 36030 ft | 389 kts | 274° |
| 2026-05-08 16:39 | 59.55986 | 44.79262 | 36028 ft | 389 kts | 274° |
| 2026-05-08 16:39 | 59.56651 | 44.68678 | 36028 ft | 389 kts | 275° |
| 2026-05-08 16:40 | 59.57425 | 44.58125 | 36026 ft | 389 kts | 276° |
| 2026-05-08 16:40 | 59.58193 | 44.47577 | 36028 ft | 388 kts | 275° |
| 2026-05-08 16:41 | 59.58939 | 44.37025 | 36027 ft | 388 kts | 275° |
| 2026-05-08 16:42 | 59.60036 | 44.21186 | 36023 ft | 388 kts | 275° |
| 2026-05-08 16:42 | 59.60759 | 44.10617 | 36032 ft | 388 kts | 275° |
| 2026-05-08 16:43 | 59.61468 | 44.00070 | 36026 ft | 388 kts | 275° |
| 2026-05-08 16:43 | 59.62170 | 43.89490 | 36035 ft | 388 kts | 275° |
| 2026-05-08 16:44 | 59.62865 | 43.78911 | 36037 ft | 388 kts | 275° |
| 2026-05-08 16:44 | 59.63546 | 43.68404 | 36049 ft | 388 kts | 275° |
| 2026-05-08 16:45 | 59.64227 | 43.57794 | 36101 ft | 387 kts | 275° |
| 2026-05-08 16:45 | 59.64896 | 43.47203 | 36114 ft | 387 kts | 275° |
| 2026-05-08 16:46 | 59.65555 | 43.36633 | 36109 ft | 388 kts | 275° |
| 2026-05-08 16:46 | 59.66207 | 43.26030 | 36109 ft | 388 kts | 275° |
| 2026-05-08 16:47 | 59.66852 | 43.15426 | 36114 ft | 389 kts | 275° |
| 2026-05-08 16:47 | 59.67490 | 43.04776 | 36108 ft | 390 kts | 275° |
| 2026-05-08 16:48 | 59.68119 | 42.94122 | 36111 ft | 390 kts | 275° |
| 2026-05-08 16:48 | 59.68741 | 42.83434 | 36113 ft | 390 kts | 275° |
| 2026-05-08 16:49 | 59.69356 | 42.72760 | 36126 ft | 390 kts | 275° |
| 2026-05-08 16:49 | 59.69960 | 42.62066 | 36120 ft | 391 kts | 274° |
| 2026-05-08 16:50 | 59.70536 | 42.51283 | 36118 ft | 391 kts | 274° |
| 2026-05-08 16:50 | 59.71092 | 42.40549 | 36122 ft | 391 kts | 274° |
| 2026-05-08 16:51 | 59.71642 | 42.29821 | 36119 ft | 391 kts | 274° |
| 2026-05-08 16:51 | 59.72189 | 42.19035 | 36123 ft | 391 kts | 274° |
| 2026-05-08 16:52 | 59.72724 | 42.08285 | 36123 ft | 391 kts | 274° |
| 2026-05-08 16:52 | 59.73251 | 41.97548 | 36122 ft | 391 kts | 274° |
| 2026-05-08 16:53 | 59.74023 | 41.81445 | 36119 ft | 391 kts | 274° |
| 2026-05-08 16:53 | 59.74529 | 41.70685 | 36122 ft | 391 kts | 274° |
| 2026-05-08 16:54 | 59.75032 | 41.59953 | 36125 ft | 391 kts | 275° |
| 2026-05-08 16:54 | 59.75845 | 41.49305 | 36134 ft | 391 kts | 277° |
| 2026-05-08 16:55 | 59.76766 | 41.38667 | 36124 ft | 391 kts | 278° |
| 2026-05-08 16:55 | 59.77675 | 41.27963 | 36133 ft | 391 kts | 277° |
| 2026-05-08 16:56 | 59.78552 | 41.17329 | 36124 ft | 390 kts | 277° |
| 2026-05-08 16:56 | 59.79410 | 41.06740 | 36136 ft | 389 kts | 277° |
| 2026-05-08 16:57 | 59.80260 | 40.96115 | 36125 ft | 388 kts | 277° |
| 2026-05-08 16:57 | 59.81093 | 40.85588 | 36131 ft | 387 kts | 277° |
| 2026-05-08 16:58 | 59.81919 | 40.75036 | 36131 ft | 386 kts | 277° |
| 2026-05-08 16:58 | 59.82735 | 40.64501 | 36137 ft | 385 kts | 277° |
| 2026-05-08 16:59 | 59.83539 | 40.54001 | 36164 ft | 383 kts | 277° |
| 2026-05-08 16:59 | 59.84334 | 40.43516 | 36172 ft | 382 kts | 277° |
| 2026-05-08 17:00 | 59.85064 | 40.33777 | 36178 ft | 382 kts | 277° |
| 2026-05-08 17:00 | 59.85840 | 40.23320 | 36179 ft | 382 kts | 277° |
| 2026-05-08 17:01 | 59.86607 | 40.12859 | 36183 ft | 382 kts | 277° |
| 2026-05-08 17:01 | 59.87372 | 40.02321 | 36195 ft | 383 kts | 277° |
| 2026-05-08 17:02 | 59.88121 | 39.91870 | 36192 ft | 383 kts | 277° |
| 2026-05-08 17:02 | 59.88867 | 39.81350 | 36197 ft | 384 kts | 277° |
| 2026-05-08 17:03 | 59.89606 | 39.70801 | 36196 ft | 384 kts | 277° |
| 2026-05-08 17:03 | 59.90336 | 39.60257 | 36196 ft | 385 kts | 277° |
| 2026-05-08 17:04 | 59.91059 | 39.49685 | 36195 ft | 385 kts | 277° |
| 2026-05-08 17:04 | 59.91779 | 39.39067 | 36196 ft | 385 kts | 277° |
| 2026-05-08 17:05 | 59.92481 | 39.28549 | 36196 ft | 385 kts | 276° |
| 2026-05-08 17:05 | 59.93176 | 39.17979 | 36185 ft | 385 kts | 276° |
| 2026-05-08 17:06 | 59.93862 | 39.07430 | 36195 ft | 384 kts | 276° |
| 2026-05-08 17:06 | 59.94430 | 38.98608 | 36188 ft | 384 kts | 276° |
| 2026-05-08 17:07 | 59.95101 | 38.88057 | 36194 ft | 383 kts | 276° |
| 2026-05-08 17:07 | 59.95761 | 38.77536 | 36192 ft | 382 kts | 276° |
| 2026-05-08 17:08 | 59.96413 | 38.67037 | 36195 ft | 380 kts | 276° |
| 2026-05-08 17:08 | 59.97056 | 38.56511 | 36192 ft | 379 kts | 276° |
| 2026-05-08 17:09 | 59.97683 | 38.46110 | 36200 ft | 379 kts | 276° |
| 2026-05-08 17:09 | 59.98304 | 38.35669 | 36195 ft | 378 kts | 276° |
| 2026-05-08 17:10 | 59.98916 | 38.25252 | 36195 ft | 378 kts | 276° |
| 2026-05-08 17:10 | 59.99522 | 38.14805 | 36196 ft | 378 kts | 276° |
| 2026-05-08 17:11 | 60.00118 | 38.04367 | 36194 ft | 378 kts | 276° |
| 2026-05-08 17:11 | 60.00705 | 37.93941 | 36189 ft | 378 kts | 276° |
| 2026-05-08 17:12 | 60.01288 | 37.83471 | 36198 ft | 378 kts | 276° |
| 2026-05-08 17:12 | 60.01861 | 37.73004 | 36195 ft | 379 kts | 276° |
| 2026-05-08 17:13 | 60.02426 | 37.62516 | 36191 ft | 379 kts | 276° |
| 2026-05-08 17:13 | 60.02982 | 37.52037 | 36195 ft | 380 kts | 276° |
| 2026-05-08 17:14 | 60.03535 | 37.41489 | 36196 ft | 381 kts | 276° |
| 2026-05-08 17:14 | 60.04079 | 37.30949 | 36193 ft | 382 kts | 276° |
| 2026-05-08 17:15 | 60.04616 | 37.20378 | 36194 ft | 382 kts | 276° |
| 2026-05-08 17:15 | 60.05148 | 37.09770 | 36198 ft | 383 kts | 276° |
| 2026-05-08 17:16 | 60.05670 | 36.99158 | 36200 ft | 384 kts | 276° |
| 2026-05-08 17:16 | 60.06182 | 36.88520 | 36203 ft | 384 kts | 276° |
| 2026-05-08 17:17 | 60.06685 | 36.77875 | 36204 ft | 384 kts | 276° |
| 2026-05-08 17:17 | 60.07180 | 36.67223 | 36204 ft | 384 kts | 276° |
| 2026-05-08 17:18 | 60.07668 | 36.56561 | 36201 ft | 383 kts | 276° |
| 2026-05-08 17:18 | 60.08143 | 36.45982 | 36199 ft | 381 kts | 276° |
| 2026-05-08 17:19 | 60.08612 | 36.35331 | 36201 ft | 380 kts | 276° |
| 2026-05-08 17:19 | 60.09064 | 36.24900 | 36210 ft | 378 kts | 276° |
| 2026-05-08 17:20 | 60.09510 | 36.14449 | 36210 ft | 376 kts | 276° |
| 2026-05-08 17:20 | 60.09946 | 36.04009 | 36219 ft | 374 kts | 276° |
| 2026-05-08 17:21 | 60.10365 | 35.93716 | 36225 ft | 372 kts | 275° |
| 2026-05-08 17:21 | 60.10778 | 35.83355 | 36231 ft | 372 kts | 275° |
| 2026-05-08 17:22 | 60.11183 | 35.73012 | 36236 ft | 372 kts | 275° |
| 2026-05-08 17:22 | 60.11581 | 35.62657 | 36238 ft | 373 kts | 275° |
| 2026-05-08 17:23 | 60.11973 | 35.52271 | 36245 ft | 375 kts | 275° |
| 2026-05-08 17:23 | 60.12357 | 35.41826 | 36242 ft | 377 kts | 275° |
| 2026-05-08 17:24 | 60.12736 | 35.31386 | 36250 ft | 379 kts | 275° |
| 2026-05-08 17:24 | 60.13108 | 35.20823 | 36249 ft | 381 kts | 275° |
| 2026-05-08 17:25 | 60.13473 | 35.10197 | 36252 ft | 383 kts | 275° |
| 2026-05-08 17:25 | 60.13832 | 34.99529 | 36248 ft | 384 kts | 275° |
| 2026-05-08 17:26 | 60.14184 | 34.88811 | 36259 ft | 385 kts | 275° |
| 2026-05-08 17:26 | 60.14529 | 34.78070 | 36256 ft | 386 kts | 275° |
| 2026-05-08 17:27 | 60.14865 | 34.67315 | 36255 ft | 385 kts | 275° |
| 2026-05-08 17:27 | 60.15191 | 34.56609 | 36257 ft | 383 kts | 275° |
| 2026-05-08 17:28 | 60.15506 | 34.45974 | 36267 ft | 381 kts | 275° |
| 2026-05-08 17:28 | 60.15812 | 34.35360 | 36265 ft | 380 kts | 275° |
| 2026-05-08 17:29 | 60.16108 | 34.24800 | 36263 ft | 378 kts | 274° |
| 2026-05-08 17:29 | 60.16396 | 34.14279 | 36262 ft | 376 kts | 274° |
| 2026-05-08 17:30 | 60.16673 | 34.03808 | 36265 ft | 375 kts | 274° |
| 2026-05-08 17:30 | 60.16937 | 33.93472 | 36264 ft | 360 kts | 274° |
| 2026-05-08 17:31 | 60.17185 | 33.83499 | 36286 ft | 353 kts | 274° |
| 2026-05-08 17:31 | 60.17426 | 33.73577 | 35948 ft | 355 kts | 274° |
| 2026-05-08 17:32 | 60.17542 | 33.68652 | 35543 ft | 352 kts | 274° |
| 2026-05-08 17:32 | 60.17655 | 33.63775 | 35226 ft | 346 kts | 274° |
| 2026-05-08 17:32 | 60.17764 | 33.58973 | 34846 ft | 342 kts | 274° |
| 2026-05-08 17:32 | 60.17871 | 33.54222 | 34466 ft | 339 kts | 274° |
| 2026-05-08 17:33 | 60.17975 | 33.49542 | 34115 ft | 335 kts | 274° |
| 2026-05-08 17:33 | 60.18077 | 33.44876 | 33750 ft | 330 kts | 274° |
| 2026-05-08 17:33 | 60.18175 | 33.40294 | 33372 ft | 327 kts | 274° |
| 2026-05-08 17:33 | 60.18271 | 33.35771 | 33029 ft | 323 kts | 274° |
| 2026-05-08 17:34 | 60.18365 | 33.31304 | 32657 ft | 320 kts | 274° |
| 2026-05-08 17:34 | 60.18457 | 33.26835 | 32310 ft | 316 kts | 274° |
| 2026-05-08 17:34 | 60.18545 | 33.22435 | 31943 ft | 313 kts | 274° |
| 2026-05-08 17:34 | 60.18544 | 33.18142 | 31595 ft | 311 kts | 269° |
| 2026-05-08 17:35 | 60.18281 | 33.13844 | 31297 ft | 309 kts | 264° |
| 2026-05-08 17:35 | 60.17776 | 33.09684 | 31061 ft | 306 kts | 260° |
| 2026-05-08 17:35 | 60.17194 | 33.05578 | 30806 ft | 301 kts | 260° |
| 2026-05-08 17:35 | 60.16607 | 33.01538 | 30552 ft | 296 kts | 260° |
| 2026-05-08 17:36 | 60.16038 | 32.97627 | 30227 ft | 293 kts | 260° |
| 2026-05-08 17:36 | 60.15465 | 32.93676 | 29900 ft | 290 kts | 260° |
| 2026-05-08 17:36 | 60.14905 | 32.89802 | 29567 ft | 288 kts | 260° |
| 2026-05-08 17:36 | 60.14352 | 32.85968 | 29228 ft | 285 kts | 260° |
| 2026-05-08 17:37 | 60.13804 | 32.82163 | 28896 ft | 282 kts | 260° |
| 2026-05-08 17:37 | 60.13267 | 32.78439 | 28568 ft | 280 kts | 260° |
| 2026-05-08 17:37 | 60.12721 | 32.74659 | 28229 ft | 278 kts | 261° |
| 2026-05-08 17:37 | 60.12182 | 32.70937 | 27904 ft | 275 kts | 261° |
| 2026-05-08 17:38 | 60.11652 | 32.67281 | 27586 ft | 273 kts | 261° |
| 2026-05-08 17:38 | 60.11129 | 32.63679 | 27278 ft | 271 kts | 261° |
| 2026-05-08 17:38 | 60.10602 | 32.60050 | 27047 ft | 275 kts | 261° |
| 2026-05-08 17:38 | 60.10057 | 32.56280 | 26822 ft | 288 kts | 261° |
| 2026-05-08 17:39 | 60.09491 | 32.52390 | 26576 ft | 293 kts | 260° |
| 2026-05-08 17:39 | 60.08914 | 32.48468 | 26328 ft | 293 kts | 260° |
| 2026-05-08 17:39 | 60.08340 | 32.44570 | 26070 ft | 290 kts | 261° |
| 2026-05-08 17:39 | 60.07761 | 32.40650 | 25818 ft | 289 kts | 261° |
| 2026-05-08 17:40 | 60.07191 | 32.36797 | 25564 ft | 288 kts | 261° |
| 2026-05-08 17:40 | 60.06626 | 32.32982 | 25311 ft | 286 kts | 261° |
| 2026-05-08 17:40 | 60.06284 | 32.30442 | 25142 ft | 283 kts | 264° |
| 2026-05-08 17:40 | 60.05999 | 32.26559 | 24547 ft | 285 kts | 272° |
| 2026-05-08 17:41 | 60.05916 | 32.22635 | 24141 ft | 284 kts | 272° |
| 2026-05-08 17:41 | 60.05836 | 32.18663 | 23821 ft | 280 kts | 272° |
| 2026-05-08 17:41 | 60.05755 | 32.14776 | 23470 ft | 278 kts | 272° |
| 2026-05-08 17:41 | 60.05672 | 32.10902 | 23140 ft | 276 kts | 273° |
| 2026-05-08 17:42 | 60.05588 | 32.07097 | 22830 ft | 273 kts | 273° |
| 2026-05-08 17:42 | 60.05503 | 32.03329 | 22521 ft | 270 kts | 273° |
| 2026-05-08 17:42 | 60.05417 | 31.99578 | 22208 ft | 268 kts | 273° |
| 2026-05-08 17:42 | 60.05331 | 31.95874 | 21905 ft | 265 kts | 273° |
| 2026-05-08 17:43 | 60.05245 | 31.92216 | 21606 ft | 262 kts | 274° |
| 2026-05-08 17:43 | 60.05159 | 31.88585 | 21321 ft | 259 kts | 274° |
| 2026-05-08 17:43 | 60.05072 | 31.85004 | 21023 ft | 257 kts | 274° |
| 2026-05-08 17:43 | 60.04985 | 31.81434 | 20726 ft | 255 kts | 274° |
| 2026-05-08 17:44 | 60.04898 | 31.77901 | 20432 ft | 253 kts | 274° |
| 2026-05-08 17:44 | 60.04810 | 31.74444 | 20145 ft | 251 kts | 274° |
| 2026-05-08 17:44 | 60.04723 | 31.70975 | 19859 ft | 248 kts | 275° |
| 2026-05-08 17:44 | 60.04636 | 31.67503 | 19573 ft | 246 kts | 275° |
| 2026-05-08 17:45 | 60.04548 | 31.64097 | 19289 ft | 244 kts | 275° |
| 2026-05-08 17:45 | 60.04461 | 31.60739 | 19030 ft | 241 kts | 275° |
| 2026-05-08 17:45 | 60.04373 | 31.57399 | 18748 ft | 240 kts | 275° |
| 2026-05-08 17:45 | 60.04285 | 31.54044 | 18472 ft | 241 kts | 275° |
| 2026-05-08 17:46 | 60.04198 | 31.50700 | 18199 ft | 243 kts | 275° |
| 2026-05-08 17:46 | 60.04110 | 31.47297 | 17918 ft | 251 kts | 275° |
| 2026-05-08 17:46 | 60.04016 | 31.43756 | 17620 ft | 258 kts | 275° |
| 2026-05-08 17:46 | 60.03915 | 31.40154 | 17286 ft | 259 kts | 275° |
| 2026-05-08 17:47 | 60.03812 | 31.36574 | 16965 ft | 258 kts | 274° |
| 2026-05-08 17:47 | 60.03573 | 31.32982 | 16573 ft | 264 kts | 268° |
| 2026-05-08 17:47 | 60.03208 | 31.29370 | 16151 ft | 268 kts | 266° |
| 2026-05-08 17:47 | 60.02948 | 31.26957 | 15891 ft | 269 kts | 266° |
| 2026-05-08 17:48 | 60.02416 | 31.22061 | 15418 ft | 269 kts | 266° |
| 2026-05-08 17:48 | 60.02021 | 31.18392 | 15070 ft | 269 kts | 266° |
| 2026-05-08 17:48 | 60.01631 | 31.14726 | 14714 ft | 270 kts | 266° |
| 2026-05-08 17:48 | 60.01240 | 31.11028 | 14313 ft | 272 kts | 266° |
| 2026-05-08 17:49 | 60.00852 | 31.07354 | 14004 ft | 271 kts | 266° |
| 2026-05-08 17:49 | 60.00463 | 31.03659 | 13684 ft | 271 kts | 266° |
| 2026-05-08 17:49 | 60.00075 | 30.99974 | 13371 ft | 270 kts | 266° |
| 2026-05-08 17:49 | 59.99952 | 30.98811 | 13271 ft | 270 kts | 266° |
| 2026-05-08 17:50 | 59.99917 | 30.98479 | 13245 ft | 270 kts | 266° |
| 2026-05-08 17:50 | 59.99656 | 30.96004 | 13035 ft | 269 kts | 266° |
| 2026-05-08 17:51 | 59.99265 | 30.92305 | 12732 ft | 268 kts | 265° |
| 2026-05-08 17:51 | 59.98882 | 30.88680 | 12437 ft | 267 kts | 266° |
| 2026-05-08 17:51 | 59.98501 | 30.85088 | 12138 ft | 267 kts | 266° |
| 2026-05-08 17:51 | 59.98111 | 30.81416 | 11835 ft | 266 kts | 266° |
| 2026-05-08 17:52 | 59.97727 | 30.77810 | 11539 ft | 266 kts | 266° |
| 2026-05-08 17:52 | 59.97341 | 30.74189 | 11241 ft | 265 kts | 265° |
| 2026-05-08 17:52 | 59.96572 | 30.67008 | 10643 ft | 265 kts | 264° |
| 2026-05-08 17:53 | 59.96185 | 30.63431 | 10452 ft | 261 kts | 264° |
| 2026-05-08 17:53 | 59.95842 | 30.59975 | 10188 ft | 256 kts | 271° |
| 2026-05-08 17:53 | 59.96173 | 30.56535 | 9787 ft | 246 kts | 298° |
| 2026-05-08 17:53 | 59.97118 | 30.53731 | 9437 ft | 243 kts | 310° |
| 2026-05-08 17:54 | 59.97885 | 30.50714 | 9058 ft | 252 kts | 293° |
| 2026-05-08 17:54 | 59.98419 | 30.47371 | 8754 ft | 253 kts | 291° |
| 2026-05-08 17:54 | 59.98927 | 30.44003 | 8467 ft | 253 kts | 291° |
| 2026-05-08 17:54 | 59.99440 | 30.40667 | 8187 ft | 252 kts | 291° |
| 2026-05-08 17:55 | 59.99968 | 30.37328 | 7918 ft | 251 kts | 291° |
| 2026-05-08 17:55 | 60.00505 | 30.34014 | 7645 ft | 250 kts | 292° |
| 2026-05-08 17:55 | 60.01048 | 30.30709 | 7371 ft | 249 kts | 292° |
| 2026-05-08 17:55 | 60.01560 | 30.27610 | 7111 ft | 248 kts | 292° |
| 2026-05-08 17:56 | 60.02102 | 30.24327 | 6839 ft | 247 kts | 291° |
| 2026-05-08 17:56 | 60.02647 | 30.21031 | 6566 ft | 246 kts | 292° |
| 2026-05-08 17:56 | 60.02989 | 30.17684 | 6267 ft | 251 kts | 270° |
| 2026-05-08 17:56 | 60.02557 | 30.14301 | 6034 ft | 256 kts | 249° |
| 2026-05-08 17:57 | 60.01691 | 30.11173 | 5777 ft | 256 kts | 243° |
| 2026-05-08 17:57 | 60.00747 | 30.08139 | 5500 ft | 256 kts | 242° |
| 2026-05-08 17:57 | 59.99803 | 30.05117 | 5218 ft | 257 kts | 242° |
| 2026-05-08 17:57 | 59.98846 | 30.01999 | 4667 ft | 268 kts | 243° |
| 2026-05-08 17:58 | 59.97878 | 29.98810 | 4326 ft | 270 kts | 242° |
| 2026-05-08 17:58 | 59.96905 | 29.95596 | 4036 ft | 269 kts | 242° |
| 2026-05-08 17:58 | 59.95939 | 29.92399 | 3772 ft | 268 kts | 242° |
| 2026-05-08 17:58 | 59.94894 | 29.89480 | 3740 ft | 258 kts | 225° |
| 2026-05-08 17:59 | 59.93345 | 29.87833 | 3633 ft | 247 kts | 193° |
| 2026-05-08 17:59 | 59.91685 | 29.87782 | 3544 ft | 232 kts | 168° |
| 2026-05-08 17:59 | 59.90229 | 29.88856 | 3425 ft | 216 kts | 147° |
| 2026-05-08 17:59 | 59.89004 | 29.90408 | 3312 ft | 203 kts | 143° |
| 2026-05-08 18:00 | 59.87851 | 29.91962 | 2976 ft | 205 kts | 142° |
| 2026-05-08 18:00 | 59.85566 | 29.95138 | 2570 ft | 190 kts | 129° |
| 2026-05-08 18:00 | 59.85011 | 29.97385 | 2565 ft | 180 kts | 101° |
| 2026-05-08 18:01 | 59.84668 | 29.99801 | 2523 ft | 182 kts | 101° |
| 2026-05-08 18:01 | 59.84317 | 30.02237 | 2348 ft | 184 kts | 102° |
| 2026-05-08 18:01 | 59.83974 | 30.04534 | 2136 ft | 168 kts | 102° |
| 2026-05-08 18:01 | 59.83644 | 30.06723 | 1880 ft | 154 kts | 102° |
| 2026-05-08 18:02 | 59.83340 | 30.08747 | 1705 ft | 153 kts | 102° |
| 2026-05-08 18:02 | 59.83138 | 30.10100 | 1570 ft | 156 kts | 103° |
| 2026-05-08 18:02 | 59.82724 | 30.12854 | 1292 ft | 155 kts | 103° |
| 2026-05-08 18:02 | 59.82420 | 30.14879 | 1088 ft | 148 kts | 104° |
| 2026-05-08 18:03 | 59.82126 | 30.16837 | 889 ft | 145 kts | 104° |
| 2026-05-08 18:03 | 59.81833 | 30.18784 | 692 ft | 148 kts | 105° |
| 2026-05-08 18:03 | 59.81528 | 30.20733 | 503 ft | 149 kts | 106° |
| 2026-05-08 18:03 | 59.81247 | 30.22706 | 304 ft | 148 kts | 104° |
| 2026-05-08 18:04 | 59.81056 | 30.24010 | 171 ft | 148 kts | 107° |